Time;durP1;ratioP1;P1;durP2;ratioP2;P2;SDS_P1;SDS_P2;PMS_P1;PMS_P2;Temp;Humidity;BMP_temperature;BMP_pressure;BME280_temperature;BME280_humidity;BME280_pressure;Samples;Min_cycle;Max_cycle;Signal;HPM_P1;HPM_P2
2024/02/06 00:00:25;;;;;;;17.45;7.90;;;;;;;;;;10453283;28;20047;-75
2024/02/06 00:05:29;;;;;;;18.55;7.40;;;;;;;;;;10452728;28;20049;-75
2024/02/06 00:10:32;;;;;;;17.50;8.35;;;;;;;;;;10442180;28;20095;-75
2024/02/06 00:15:37;;;;;;;20.48;8.65;;;;;;;;;;10455296;28;20037;-75
2024/02/06 00:20:40;;;;;;;18.13;7.80;;;;;;;;;;10443955;28;20048;-75
2024/02/06 00:25:43;;;;;;;17.05;5.75;;;;;;;;;;10442679;28;20041;-75
2024/02/06 00:30:48;;;;;;;14.98;6.05;;;;;;;;;;10458387;28;20560;-75
2024/02/06 00:35:51;;;;;;;9.35;5.30;;;;;;;;;;10443968;28;20029;-75
2024/02/06 00:40:54;;;;;;;12.27;5.60;;;;;;;;;;10444801;28;20664;-75
2024/02/06 00:46:00;;;;;;;15.75;6.32;;;;;;;;;;10430382;28;20034;-75
2024/02/06 00:51:04;;;;;;;12.10;5.65;;;;;;;;;;10454468;28;20064;-75
2024/02/06 00:56:08;;;;;;;8.88;4.70;;;;;;;;;;10450654;28;20037;-75
2024/02/06 01:01:12;;;;;;;9.52;5.03;;;;;;;;;;10450734;28;20040;-75
2024/02/06 01:06:16;;;;;;;7.25;3.63;;;;;;;;;;10449693;28;20483;-75
2024/02/06 01:11:19;;;;;;;8.27;4.13;;;;;;;;;;10447260;28;20044;-75
2024/02/06 01:16:23;;;;;;;10.25;4.65;;;;;;;;;;10449230;28;20040;-75
2024/02/06 01:21:27;;;;;;;8.40;4.07;;;;;;;;;;10450512;28;20043;-75
2024/02/06 01:26:30;;;;;;;9.52;3.67;;;;;;;;;;10445613;28;20421;-75
2024/02/06 01:31:34;;;;;;;7.97;3.88;;;;;;;;;;10452886;28;20045;-75
2024/02/06 01:36:37;;;;;;;5.75;2.95;;;;;;;;;;10455808;28;20145;-75
2024/02/06 01:41:41;;;;;;;4.60;2.75;;;;;;;;;;10446615;28;20052;-75
2024/02/06 01:46:45;;;;;;;7.70;3.47;;;;;;;;;;10449873;28;20044;-75
2024/02/06 01:51:49;;;;;;;7.35;2.78;;;;;;;;;;10444717;28;20079;-75
2024/02/06 01:56:53;;;;;;;5.93;2.75;;;;;;;;;;10451364;28;20409;-76
2024/02/06 02:01:58;;;;;;;8.70;3.13;;;;;;;;;;10450364;28;20061;-75
2024/02/06 02:07:02;;;;;;;7.05;3.42;;;;;;;;;;10444204;28;20187;-75
2024/02/06 02:12:06;;;;;;;5.95;2.63;;;;;;;;;;10443712;28;20052;-75
2024/02/06 02:17:11;;;;;;;5.13;2.95;;;;;;;;;;10429317;28;20049;-75
2024/02/06 02:22:16;;;;;;;6.75;2.95;;;;;;;;;;10445015;28;20049;-75
2024/02/06 02:27:19;;;;;;;4.80;2.42;;;;;;;;;;10439692;28;20041;-75
2024/02/06 02:32:23;;;;;;;4.47;2.40;;;;;;;;;;10453155;28;20410;-75
2024/02/06 02:37:28;;;;;;;4.05;2.95;;;;;;;;;;10457827;28;20068;-75
2024/02/06 02:42:31;;;;;;;6.85;3.08;;;;;;;;;;10443963;28;20051;-75
2024/02/06 02:47:34;;;;;;;6.32;2.78;;;;;;;;;;10465699;28;20040;-75
2024/02/06 02:52:39;;;;;;;4.15;2.65;;;;;;;;;;10469480;28;20067;-75
2024/02/06 02:57:42;;;;;;;6.93;2.25;;;;;;;;;;10465019;28;20413;-75
2024/02/06 03:02:46;;;;;;;2.83;2.20;;;;;;;;;;10459246;28;20048;-75
2024/02/06 03:07:50;;;;;;;7.82;3.38;;;;;;;;;;10452994;28;20557;-75
2024/02/06 03:12:53;;;;;;;2.83;2.00;;;;;;;;;;10444954;28;20071;-75
2024/02/06 03:17:57;;;;;;;4.90;2.78;;;;;;;;;;10456476;28;20043;-75
2024/02/06 03:23:02;;;;;;;4.20;2.35;;;;;;;;;;10453775;28;20513;-75
2024/02/06 03:28:06;;;;;;;3.38;2.05;;;;;;;;;;10457546;28;20417;-75
2024/02/06 03:33:09;;;;;;;5.45;2.38;;;;;;;;;;10465458;28;20057;-75
2024/02/06 03:38:14;;;;;;;4.32;2.40;;;;;;;;;;10456715;28;20048;-76
2024/02/06 03:43:17;;;;;;;3.33;2.28;;;;;;;;;;10458941;28;20052;-75
2024/02/06 03:48:20;;;;;;;6.03;2.40;;;;;;;;;;10463705;28;20045;-75
2024/02/06 03:53:25;;;;;;;7.07;2.80;;;;;;;;;;10456095;28;20640;-75
2024/02/06 03:58:28;;;;;;;3.40;2.10;;;;;;;;;;10453828;28;20039;-75
2024/02/06 04:03:31;;;;;;;3.13;2.17;;;;;;;;;;10457108;28;20597;-75
2024/02/06 04:08:36;;;;;;;3.20;1.90;;;;;;;;;;10452665;28;20115;-75
2024/02/06 04:13:40;;;;;;;5.85;2.83;;;;;;;;;;10454103;28;20497;-75
2024/02/06 04:18:43;;;;;;;5.45;3.03;;;;;;;;;;10452422;28;20049;-75
2024/02/06 04:23:48;;;;;;;3.50;2.10;;;;;;;;;;10458710;28;20040;-75
2024/02/06 04:28:51;;;;;;;3.45;2.20;;;;;;;;;;10443295;28;20666;-75
2024/02/06 04:33:55;;;;;;;6.10;2.35;;;;;;;;;;10459162;28;20063;-75
2024/02/06 04:38:59;;;;;;;5.43;1.80;;;;;;;;;;10455076;28;20054;-75
2024/02/06 04:44:03;;;;;;;5.40;1.90;;;;;;;;;;10451073;28;20052;-75
2024/02/06 04:49:06;;;;;;;3.10;1.88;;;;;;;;;;10435834;28;20515;-75
2024/02/06 04:54:11;;;;;;;4.03;2.30;;;;;;;;;;10456557;28;20124;-75
2024/02/06 04:59:14;;;;;;;2.97;2.00;;;;;;;;;;10458034;28;20044;-76
2024/02/06 05:04:17;;;;;;;3.90;1.95;;;;;;;;;;10453664;28;20074;-75
2024/02/06 05:14:43;;;;;;;4.70;2.65;;;;;;;;;;10328956;28;20503;-75
2024/02/06 05:19:47;;;;;;;3.40;2.25;;;;;;;;;;10325983;28;20045;-75
2024/02/06 05:24:52;;;;;;;5.40;2.17;;;;;;;;;;10330389;28;20704;-75
2024/02/06 05:29:55;;;;;;;7.65;2.50;;;;;;;;;;10332981;28;20177;-75
2024/02/06 05:34:59;;;;;;;4.28;2.20;;;;;;;;;;10304234;28;20092;-75
2024/02/06 05:40:06;;;;;;;5.38;2.38;;;;;;;;;;10304852;28;20496;-76
2024/02/06 05:45:10;;;;;;;5.65;2.45;;;;;;;;;;10325936;28;20042;-77
2024/02/06 05:50:13;;;;;;;6.53;2.58;;;;;;;;;;10325026;28;20046;-75
2024/02/06 05:55:18;;;;;;;5.05;2.22;;;;;;;;;;10315046;28;20042;-75
2024/02/06 06:00:26;;;;;;;4.72;2.40;;;;;;;;;;10317027;28;20503;-75
2024/02/06 06:05:29;;;;;;;4.35;2.40;;;;;;;;;;10321690;28;20038;-75
2024/02/06 06:10:34;;;;;;;3.55;2.15;;;;;;;;;;10327206;28;20050;-75
2024/02/06 06:15:37;;;;;;;5.78;2.55;;;;;;;;;;10322817;28;20125;-75
2024/02/06 06:20:41;;;;;;;3.03;1.80;;;;;;;;;;10335614;28;20046;-75
2024/02/06 06:25:45;;;;;;;3.78;2.15;;;;;;;;;;10336141;28;20096;-75
2024/02/06 06:30:49;;;;;;;4.45;2.47;;;;;;;;;;10329141;28;20054;-75
2024/02/06 06:35:52;;;;;;;3.90;2.00;;;;;;;;;;10327101;28;20065;-75
2024/02/06 06:40:57;;;;;;;2.53;1.90;;;;;;;;;;10325753;28;20054;-76
2024/02/06 06:46:00;;;;;;;2.00;1.40;;;;;;;;;;10327390;28;20141;-76
2024/02/06 06:51:04;;;;;;;4.50;2.33;;;;;;;;;;10313576;28;20043;-75
2024/02/06 06:56:17;;;;;;;5.95;2.10;;;;;;;;;;10326319;28;20137;-75
2024/02/06 07:01:20;;;;;;;3.08;2.30;;;;;;;;;;10326774;28;20088;-75
2024/02/06 07:06:24;;;;;;;4.45;1.85;;;;;;;;;;10329274;28;20050;-75
2024/02/06 07:11:28;;;;;;;6.50;2.42;;;;;;;;;;10328309;28;20423;-75
2024/02/06 07:16:32;;;;;;;3.85;2.45;;;;;;;;;;10330730;28;20045;-75
2024/02/06 07:21:35;;;;;;;2.58;1.80;;;;;;;;;;10336595;28;20045;-75
2024/02/06 07:26:40;;;;;;;4.50;2.55;;;;;;;;;;10332289;28;20530;-75
2024/02/06 07:31:43;;;;;;;4.45;2.38;;;;;;;;;;10319497;28;20042;-75
2024/02/06 07:36:46;;;;;;;6.03;2.30;;;;;;;;;;10326240;28;20070;-74
2024/02/06 07:41:51;;;;;;;5.93;2.92;;;;;;;;;;10307003;28;20188;-75
2024/02/06 07:46:54;;;;;;;4.22;2.17;;;;;;;;;;10322045;28;20504;-75
2024/02/06 07:51:57;;;;;;;5.45;2.78;;;;;;;;;;10301823;28;20052;-75
2024/02/06 07:57:02;;;;;;;4.57;2.22;;;;;;;;;;10326261;28;20049;-75
2024/02/06 08:02:06;;;;;;;6.70;2.90;;;;;;;;;;10323269;28;20050;-75
2024/02/06 08:07:09;;;;;;;7.43;2.90;;;;;;;;;;10312652;28;20064;-75
2024/02/06 08:12:14;;;;;;;7.35;2.83;;;;;;;;;;10324898;28;20046;-74
2024/02/06 08:17:18;;;;;;;4.45;2.85;;;;;;;;;;10324422;28;20046;-75
2024/02/06 08:22:21;;;;;;;6.50;2.88;;;;;;;;;;10328245;28;20074;-75
2024/02/06 08:27:26;;;;;;;7.97;3.40;;;;;;;;;;10322589;28;20046;-75
2024/02/06 08:32:29;;;;;;;6.05;3.10;;;;;;;;;;10321829;28;20042;-75
2024/02/06 08:37:33;;;;;;;5.68;3.70;;;;;;;;;;10307047;28;20042;-75
2024/02/06 08:42:38;;;;;;;6.40;3.45;;;;;;;;;;10307722;28;20129;-75
2024/02/06 08:47:41;;;;;;;9.68;4.03;;;;;;;;;;10322688;28;20065;-75
2024/02/06 08:52:45;;;;;;;6.57;3.75;;;;;;;;;;10322223;28;20053;-75
2024/02/06 08:57:49;;;;;;;7.32;3.92;;;;;;;;;;10318306;28;20522;-75
2024/02/06 09:02:53;;;;;;;11.32;4.68;;;;;;;;;;10319405;28;20054;-75
2024/02/06 09:07:56;;;;;;;7.18;4.15;;;;;;;;;;10323699;28;20050;-75
2024/02/06 09:13:03;;;;;;;7.05;3.88;;;;;;;;;;10306377;28;20045;-75
2024/02/06 09:18:07;;;;;;;7.72;4.55;;;;;;;;;;10319159;28;20089;-75
2024/02/06 09:23:10;;;;;;;7.68;4.22;;;;;;;;;;10320971;28;20076;-75
2024/02/06 09:28:15;;;;;;;7.93;4.88;;;;;;;;;;10319409;28;20038;-75
2024/02/06 09:33:19;;;;;;;8.75;3.92;;;;;;;;;;10324927;28;20073;-75
2024/02/06 09:38:22;;;;;;;8.02;4.18;;;;;;;;;;10319541;28;20138;-75
2024/02/06 09:43:26;;;;;;;12.40;5.00;;;;;;;;;;10317355;28;20038;-75
2024/02/06 09:48:30;;;;;;;6.15;4.10;;;;;;;;;;10319751;28;20543;-75
2024/02/06 09:53:35;;;;;;;10.90;5.20;;;;;;;;;;10318739;28;20177;-75
2024/02/06 09:58:40;;;;;;;9.93;5.30;;;;;;;;;;10320953;28;20536;-75
2024/02/06 10:03:46;;;;;;;9.17;5.80;;;;;;;;;;10317330;28;20048;-75
2024/02/06 10:08:50;;;;;;;13.23;6.30;;;;;;;;;;10324038;28;20056;-75
2024/02/06 10:13:55;;;;;;;12.20;6.50;;;;;;;;;;10322776;28;20035;-75
2024/02/06 10:18:59;;;;;;;12.77;6.00;;;;;;;;;;10316523;28;20122;-75
2024/02/06 10:24:05;;;;;;;9.55;5.60;;;;;;;;;;10320056;28;20054;-75
2024/02/06 10:29:17;;;;;;;14.05;7.05;;;;;;;;;;10318661;28;20050;-76
2024/02/06 10:34:20;;;;;;;14.15;6.13;;;;;;;;;;10322896;28;20046;-75
2024/02/06 10:39:23;;;;;;;10.93;5.55;;;;;;;;;;10318525;28;20034;-75
2024/02/06 10:44:30;;;;;;;11.27;5.32;;;;;;;;;;10320586;28;20057;-75
2024/02/06 10:49:33;;;;;;;10.98;5.30;;;;;;;;;;10315854;28;20042;-75
2024/02/06 10:54:38;;;;;;;10.32;5.97;;;;;;;;;;10317753;28;20046;-75
2024/02/06 10:59:47;;;;;;;12.52;6.18;;;;;;;;;;10322747;28;20044;-75
2024/02/06 11:05:00;;;;;;;14.00;6.20;;;;;;;;;;10323251;28;20054;-75
2024/02/06 11:10:07;;;;;;;8.68;4.90;;;;;;;;;;10354281;22;20195;-75
2024/02/06 11:15:15;;;;;;;9.48;4.80;;;;;;;;;;10443626;28;20075;-75
2024/02/06 11:20:24;;;;;;;14.95;5.35;;;;;;;;;;10473170;28;20044;-75
2024/02/06 11:25:30;;;;;;;10.45;4.95;;;;;;;;;;10479351;28;20144;-75
2024/02/06 11:30:34;;;;;;;10.60;5.55;;;;;;;;;;10482781;28;20044;-75
2024/02/06 11:35:38;;;;;;;15.45;5.25;;;;;;;;;;10476633;28;20056;-75
2024/02/06 11:40:41;;;;;;;7.70;4.43;;;;;;;;;;10477492;28;20041;-75
2024/02/06 11:45:47;;;;;;;14.43;5.65;;;;;;;;;;10483394;28;20094;-75
2024/02/06 11:50:50;;;;;;;10.43;5.53;;;;;;;;;;10482616;28;20049;-75
2024/02/06 11:55:57;;;;;;;9.15;4.60;;;;;;;;;;10481031;28;20099;-76
2024/02/06 12:01:06;;;;;;;12.95;5.65;;;;;;;;;;10482926;28;20508;-75
2024/02/06 12:06:09;;;;;;;11.68;4.97;;;;;;;;;;10478408;28;20123;-75
2024/02/06 12:11:12;;;;;;;11.57;5.55;;;;;;;;;;10473474;28;20552;-75
2024/02/06 12:16:17;;;;;;;9.70;4.53;;;;;;;;;;10476745;28;20143;-75
2024/02/06 12:21:21;;;;;;;10.70;5.78;;;;;;;;;;10477053;28;20441;-75
2024/02/06 12:26:25;;;;;;;10.43;4.55;;;;;;;;;;10482123;28;20389;-75
2024/02/06 12:31:30;;;;;;;10.27;4.75;;;;;;;;;;10478278;28;20397;-75
2024/02/06 12:36:34;;;;;;;13.30;4.93;;;;;;;;;;10468896;28;20060;-75
2024/02/06 12:41:38;;;;;;;13.40;5.32;;;;;;;;;;10478848;28;20506;-75
2024/02/06 12:46:43;;;;;;;11.95;5.38;;;;;;;;;;10476099;28;20053;-75
2024/02/06 12:51:46;;;;;;;15.65;5.50;;;;;;;;;;10471883;28;20329;-76
2024/02/06 12:56:50;;;;;;;6.97;3.92;;;;;;;;;;10478473;28;20041;-75
2024/02/06 13:02:06;;;;;;;12.82;4.28;;;;;;;;;;10457647;28;33752;-75
2024/02/06 13:07:17;;;;;;;;;;;;;;;;;;10475171;28;20063;-75
2024/02/06 13:12:20;;;;;;;12.68;4.93;;;;;;;;;;10472994;28;19924;-75
2024/02/06 13:17:25;;;;;;;17.55;5.43;;;;;;;;;;10470345;28;20130;-75
2024/02/06 13:22:28;;;;;;;13.77;5.85;;;;;;;;;;10468644;28;20037;-75
2024/02/06 13:27:32;;;;;;;11.93;5.22;;;;;;;;;;10471839;28;20044;-75
2024/02/06 13:32:36;;;;;;;9.85;4.55;;;;;;;;;;10485147;28;20033;-75
2024/02/06 13:37:40;;;;;;;11.35;4.75;;;;;;;;;;10477673;28;20062;-75
2024/02/06 13:42:44;;;;;;;13.48;5.18;;;;;;;;;;10475598;28;20743;-75
2024/02/06 13:47:48;;;;;;;9.93;4.57;;;;;;;;;;10468496;28;20046;-75
2024/02/06 13:52:52;;;;;;;11.15;4.75;;;;;;;;;;10469332;28;20052;-76
2024/02/06 13:57:57;;;;;;;12.40;4.20;;;;;;;;;;10470993;28;20128;-75
2024/02/06 14:03:02;;;;;;;9.07;4.07;;;;;;;;;;10477520;28;20143;-76
2024/02/06 14:08:06;;;;;;;9.80;4.00;;;;;;;;;;10464705;28;20114;-75
2024/02/06 14:13:09;;;;;;;9.07;4.00;;;;;;;;;;10469956;28;20040;-75
2024/02/06 14:18:14;;;;;;;11.45;4.32;;;;;;;;;;10467303;28;20128;-75
2024/02/06 14:23:17;;;;;;;10.00;4.28;;;;;;;;;;10471484;28;20591;-75
2024/02/06 14:28:20;;;;;;;11.95;4.80;;;;;;;;;;10474416;28;20044;-75
2024/02/06 14:33:25;;;;;;;7.45;3.88;;;;;;;;;;10467967;28;20035;-75
2024/02/06 14:38:28;;;;;;;7.70;3.75;;;;;;;;;;10472027;28;20044;-76
2024/02/06 14:43:32;;;;;;;11.57;4.20;;;;;;;;;;10482795;28;20405;-75
2024/02/06 14:48:37;;;;;;;10.20;4.28;;;;;;;;;;10487485;28;20064;-75
2024/02/06 14:53:41;;;;;;;9.33;3.43;;;;;;;;;;10488910;28;20040;-75
2024/02/06 14:58:44;;;;;;;9.10;3.70;;;;;;;;;;10486487;28;20593;-75
2024/02/06 15:03:54;;;;;;;10.75;3.95;;;;;;;;;;10487175;28;20054;-75
2024/02/06 15:08:57;;;;;;;11.65;4.28;;;;;;;;;;10479412;28;20058;-75
2024/02/06 15:14:00;;;;;;;8.57;3.42;;;;;;;;;;10479610;28;20047;-76
2024/02/06 15:19:05;;;;;;;9.48;3.70;;;;;;;;;;10478095;28;20098;-76
2024/02/06 15:24:09;;;;;;;8.45;3.15;;;;;;;;;;10481284;28;20682;-76
2024/02/06 15:29:12;;;;;;;11.43;4.22;;;;;;;;;;10487755;28;20051;-75
2024/02/06 15:34:17;;;;;;;9.35;4.07;;;;;;;;;;10482612;28;20040;-75
2024/02/06 15:39:20;;;;;;;10.23;4.47;;;;;;;;;;10472281;28;20078;-75
2024/02/06 15:44:24;;;;;;;11.07;3.70;;;;;;;;;;10485463;28;20040;-75
2024/02/06 15:49:28;;;;;;;10.10;4.18;;;;;;;;;;10478734;28;20037;-75
2024/02/06 15:54:33;;;;;;;12.30;4.22;;;;;;;;;;10479011;28;20044;-75
2024/02/06 15:59:40;;;;;;;13.25;4.13;;;;;;;;;;10462002;28;20037;-75
2024/02/06 16:04:45;;;;;;;9.40;3.53;;;;;;;;;;10465754;28;20044;-75
2024/02/06 16:09:50;;;;;;;10.93;3.20;;;;;;;;;;10476497;28;20146;-75
2024/02/06 16:14:54;;;;;;;8.60;3.77;;;;;;;;;;10473605;28;20127;-75
2024/02/06 16:19:58;;;;;;;8.85;3.35;;;;;;;;;;10472842;28;20064;-75
2024/02/06 16:25:03;;;;;;;7.88;3.10;;;;;;;;;;10474473;28;20067;-75
2024/02/06 16:30:07;;;;;;;8.50;3.08;;;;;;;;;;10459356;28;20698;-75
2024/02/06 16:35:12;;;;;;;7.60;3.28;;;;;;;;;;10475386;28;20044;-75
2024/02/06 16:40:15;;;;;;;11.25;4.05;;;;;;;;;;10482152;28;20041;-75
2024/02/06 16:45:19;;;;;;;7.32;3.35;;;;;;;;;;10469431;28;20051;-75
2024/02/06 16:50:24;;;;;;;10.98;3.90;;;;;;;;;;10477055;28;20098;-76
2024/02/06 16:55:27;;;;;;;8.23;3.13;;;;;;;;;;10464504;28;20049;-75
2024/02/06 17:00:30;;;;;;;5.97;3.50;;;;;;;;;;10467049;28;20056;-75
2024/02/06 17:05:35;;;;;;;10.10;3.25;;;;;;;;;;10472868;28;20041;-75
2024/02/06 17:10:39;;;;;;;8.27;3.22;;;;;;;;;;10476067;22;20052;-75
2024/02/06 17:15:43;;;;;;;5.63;3.15;;;;;;;;;;10437418;28;20052;-75
2024/02/06 17:20:48;;;;;;;6.13;2.83;;;;;;;;;;10431089;28;20509;-75
2024/02/06 17:25:54;;;;;;;6.75;3.00;;;;;;;;;;10435762;28;20045;-75
2024/02/06 17:30:57;;;;;;;6.47;2.63;;;;;;;;;;10433727;28;20041;-75
2024/02/06 17:36:02;;;;;;;6.80;3.08;;;;;;;;;;10433158;28;20091;-75
2024/02/06 17:41:07;;;;;;;4.57;2.67;;;;;;;;;;10435572;28;20131;-75
2024/02/06 17:46:11;;;;;;;3.80;2.10;;;;;;;;;;10439098;28;20043;-75
2024/02/06 17:51:16;;;;;;;9.20;3.47;;;;;;;;;;10437187;28;20053;-75
2024/02/06 17:56:19;;;;;;;10.05;3.40;;;;;;;;;;10437717;28;20076;-75
2024/02/06 18:01:24;;;;;;;8.98;3.67;;;;;;;;;;10439730;28;20509;-75
2024/02/06 18:06:28;;;;;;;6.18;2.70;;;;;;;;;;10418413;28;20540;-75
2024/02/06 18:11:32;;;;;;;6.75;2.95;;;;;;;;;;10435689;28;20364;-75
2024/02/06 18:22:07;;;;;;;5.93;3.22;;;;;;;;;;10442819;28;20053;-75
2024/02/06 18:27:11;;;;;;;8.48;3.67;;;;;;;;;;10443588;28;20048;-75
2024/02/06 18:32:14;;;;;;;7.18;3.80;;;;;;;;;;10445814;28;20049;-75
2024/02/06 18:37:19;;;;;;;9.00;3.30;;;;;;;;;;10442869;28;20101;-75
2024/02/06 18:42:23;;;;;;;9.15;3.53;;;;;;;;;;10444271;28;20045;-75
2024/02/06 18:47:26;;;;;;;7.30;3.42;;;;;;;;;;10440029;28;20488;-75
2024/02/06 18:52:31;;;;;;;7.22;2.95;;;;;;;;;;10427481;28;20041;-75
2024/02/06 18:57:35;;;;;;;8.43;3.63;;;;;;;;;;10444163;28;20040;-75
2024/02/06 19:02:38;;;;;;;9.13;3.40;;;;;;;;;;10445884;28;20052;-75
2024/02/06 19:07:43;;;;;;;7.10;3.67;;;;;;;;;;10444489;28;20451;-75
2024/02/06 19:12:46;;;;;;;6.45;3.28;;;;;;;;;;10444596;28;20057;-74
2024/02/06 19:17:49;;;;;;;7.88;3.50;;;;;;;;;;10438187;28;20521;-75
2024/02/06 19:22:54;;;;;;;8.48;4.18;;;;;;;;;;10440389;28;20095;-75
2024/02/06 19:27:58;;;;;;;6.30;3.30;;;;;;;;;;10443970;28;20067;-75
2024/02/06 19:33:01;;;;;;;8.07;4.07;;;;;;;;;;10441736;28;20498;-74
2024/02/06 19:38:13;;;;;;;5.95;3.90;;;;;;;;;;10442645;28;20198;-75
2024/02/06 19:43:17;;;;;;;5.22;3.30;;;;;;;;;;10439756;28;20045;-75
2024/02/06 19:49:19;;;;;;;6.68;3.42;;;;;;;;;;10437515;28;20033;-74
2024/02/06 20:01:23;;;;;;;3.75;2.58;;;;;;;;;;10423732;28;20029;-75
2024/02/06 20:06:27;;;;;;;9.30;4.55;;;;;;;;;;10441329;28;20045;-74
2024/02/06 20:11:32;;;;;;;5.85;3.30;;;;;;;;;;10441528;28;20043;-75
2024/02/06 20:16:46;;;;;;;5.47;3.75;;;;;;;;;;10429951;28;20564;-75
2024/02/06 20:21:50;;;;;;;5.53;3.05;;;;;;;;;;10426579;28;20757;-74
2024/02/06 20:27:28;;;;;;;5.10;3.20;;;;;;;;;;10440287;28;20115;-75
2024/02/06 20:32:33;;;;;;;7.40;4.55;;;;;;;;;;10435179;28;20040;-75
2024/02/06 20:37:36;;;;;;;9.25;4.50;;;;;;;;;;10439599;28;20112;-75
2024/02/06 20:42:40;;;;;;;9.13;4.68;;;;;;;;;;10439482;28;20033;-75
2024/02/06 20:47:45;;;;;;;13.32;4.65;;;;;;;;;;10423605;28;20048;-75
2024/02/06 20:52:48;;;;;;;9.07;4.40;;;;;;;;;;10435916;28;20055;-75
2024/02/06 20:57:51;;;;;;;8.25;4.10;;;;;;;;;;10436097;28;20568;-75
2024/02/06 21:02:57;;;;;;;8.05;4.05;;;;;;;;;;10437238;28;20051;-75
2024/02/06 21:08:00;;;;;;;11.00;3.95;;;;;;;;;;10419836;28;20040;-74
2024/02/06 21:13:03;;;;;;;7.57;3.35;;;;;;;;;;10421009;28;20076;-75
2024/02/06 21:18:08;;;;;;;7.38;4.00;;;;;;;;;;10439505;28;20041;-75
2024/02/06 21:23:12;;;;;;;9.00;4.45;;;;;;;;;;10438390;28;20502;-75
2024/02/06 21:28:15;;;;;;;10.23;4.30;;;;;;;;;;10420248;28;20041;-75
2024/02/06 21:33:20;;;;;;;8.30;4.07;;;;;;;;;;10437814;28;20048;-74
2024/02/06 21:38:23;;;;;;;9.43;4.40;;;;;;;;;;10413707;28;20055;-74
2024/02/06 21:43:28;;;;;;;8.82;4.15;;;;;;;;;;10438549;28;20041;-75
2024/02/06 21:48:34;;;;;;;12.38;4.93;;;;;;;;;;10434058;28;20053;-74
2024/02/06 21:53:37;;;;;;;8.65;4.07;;;;;;;;;;10421850;28;20052;-75
2024/02/06 21:58:41;;;;;;;8.63;3.78;;;;;;;;;;10438468;28;22408;-75
2024/02/06 22:03:46;;;;;;;8.70;4.35;;;;;;;;;;10399924;28;20077;-75
2024/02/06 22:08:50;;;;;;;9.90;4.80;;;;;;;;;;10379322;28;20040;-75
2024/02/06 22:13:53;;;;;;;7.13;4.25;;;;;;;;;;10392962;28;20060;-74
2024/02/06 22:18:57;;;;;;;10.45;4.55;;;;;;;;;;10391942;28;20052;-74
2024/02/06 22:24:01;;;;;;;8.88;4.03;;;;;;;;;;10401716;28;20050;-74
2024/02/06 22:29:04;;;;;;;10.40;4.15;;;;;;;;;;10401379;28;20056;-74
2024/02/06 22:34:09;;;;;;;9.80;4.07;;;;;;;;;;10383034;28;20037;-74
2024/02/06 22:39:14;;;;;;;8.38;3.70;;;;;;;;;;10401011;28;20502;-74
2024/02/06 22:44:17;;;;;;;11.35;3.92;;;;;;;;;;10397498;28;20370;-74
2024/02/06 22:49:21;;;;;;;7.50;4.07;;;;;;;;;;10403550;28;20048;-74
2024/02/06 22:54:25;;;;;;;9.23;3.80;;;;;;;;;;10397532;28;20128;-74
2024/02/06 22:59:28;;;;;;;13.18;3.83;;;;;;;;;;10404006;28;20053;-75
2024/02/06 23:04:33;;;;;;;7.75;3.33;;;;;;;;;;10410221;28;20128;-74
2024/02/06 23:09:42;;;;;;;5.30;3.10;;;;;;;;;;10411803;28;20049;-74
2024/02/06 23:14:45;;;;;;;5.90;3.10;;;;;;;;;;10410473;28;20503;-74
2024/02/06 23:19:50;;;;;;;6.25;2.80;;;;;;;;;;10407568;28;20304;-74
2024/02/06 23:24:53;;;;;;;4.35;2.13;;;;;;;;;;10410890;28;20132;-75
2024/02/06 23:29:56;;;;;;;7.05;3.15;;;;;;;;;;10402739;28;20049;-74
2024/02/06 23:35:03;;;;;;;8.05;3.70;;;;;;;;;;10402694;28;20734;-75
2024/02/06 23:40:09;;;;;;;8.52;3.40;;;;;;;;;;10385431;28;20099;-74
2024/02/06 23:45:13;;;;;;;5.85;3.47;;;;;;;;;;10383469;28;20117;-74
2024/02/06 23:50:17;;;;;;;11.32;3.10;;;;;;;;;;10385290;28;20439;-74
2024/02/06 23:55:21;;;;;;;6.32;3.45;;;;;;;;;;10405358;28;20511;-75
